sensor_id;sensor_type;location;lat;lon;timestamp;P1;durP1;ratioP1;P2;durP2;ratioP2
55007;SDS011;40902;45.116;21.296;2023-02-01T00:01:22;22.50;;;12.55;;
55007;SDS011;40902;45.116;21.296;2023-02-01T00:03:48;17.33;;;9.98;;
55007;SDS011;40902;45.116;21.296;2023-02-01T00:06:13;28.63;;;13.27;;
55007;SDS011;40902;45.116;21.296;2023-02-01T00:08:39;41.20;;;16.58;;
55007;SDS011;40902;45.116;21.296;2023-02-01T00:11:06;34.83;;;15.77;;
55007;SDS011;40902;45.116;21.296;2023-02-01T00:13:34;31.95;;;14.25;;
55007;SDS011;40902;45.116;21.296;2023-02-01T00:16:05;22.70;;;10.38;;
55007;SDS011;40902;45.116;21.296;2023-02-01T00:18:37;37.55;;;15.88;;
55007;SDS011;40902;45.116;21.296;2023-02-01T00:21:03;43.72;;;17.23;;
55007;SDS011;40902;45.116;21.296;2023-02-01T00:23:32;34.80;;;15.43;;
55007;SDS011;40902;45.116;21.296;2023-02-01T00:26:02;33.17;;;15.05;;
55007;SDS011;40902;45.116;21.296;2023-02-01T00:28:30;40.67;;;16.02;;
55007;SDS011;40902;45.116;21.296;2023-02-01T00:30:59;33.05;;;14.15;;
55007;SDS011;40902;45.116;21.296;2023-02-01T00:33:27;26.98;;;12.23;;
55007;SDS011;40902;45.116;21.296;2023-02-01T00:35:57;19.25;;;10.85;;
55007;SDS011;40902;45.116;21.296;2023-02-01T00:38:28;22.70;;;12.02;;
55007;SDS011;40902;45.116;21.296;2023-02-01T00:41:07;24.13;;;11.23;;
55007;SDS011;40902;45.116;21.296;2023-02-01T00:43:36;23.73;;;12.30;;
55007;SDS011;40902;45.116;21.296;2023-02-01T00:46:01;23.73;;;12.70;;
55007;SDS011;40902;45.116;21.296;2023-02-01T00:48:27;21.73;;;12.15;;
55007;SDS011;40902;45.116;21.296;2023-02-01T00:50:53;25.05;;;14.07;;
55007;SDS011;40902;45.116;21.296;2023-02-01T00:53:19;24.17;;;13.27;;
55007;SDS011;40902;45.116;21.296;2023-02-01T00:55:45;26.63;;;13.63;;
55007;SDS011;40902;45.116;21.296;2023-02-01T00:58:11;29.70;;;15.07;;
55007;SDS011;40902;45.116;21.296;2023-02-01T01:00:37;27.25;;;14.57;;
55007;SDS011;40902;45.116;21.296;2023-02-01T01:03:03;28.02;;;14.85;;
55007;SDS011;40902;45.116;21.296;2023-02-01T01:05:43;36.10;;;18.45;;
55007;SDS011;40902;45.116;21.296;2023-02-01T01:08:10;29.73;;;16.48;;
55007;SDS011;40902;45.116;21.296;2023-02-01T01:10:35;31.92;;;17.75;;
55007;SDS011;40902;45.116;21.296;2023-02-01T01:13:01;29.88;;;16.52;;
55007;SDS011;40902;45.116;21.296;2023-02-01T01:15:27;30.23;;;15.93;;
55007;SDS011;40902;45.116;21.296;2023-02-01T01:17:52;31.83;;;17.08;;
55007;SDS011;40902;45.116;21.296;2023-02-01T01:20:18;25.52;;;14.07;;
55007;SDS011;40902;45.116;21.296;2023-02-01T01:22:46;21.27;;;11.75;;
55007;SDS011;40902;45.116;21.296;2023-02-01T01:25:12;25.35;;;13.00;;
55007;SDS011;40902;45.116;21.296;2023-02-01T01:27:38;22.33;;;11.95;;
55007;SDS011;40902;45.116;21.296;2023-02-01T01:30:04;22.40;;;12.68;;
55007;SDS011;40902;45.116;21.296;2023-02-01T01:32:30;24.02;;;12.07;;
55007;SDS011;40902;45.116;21.296;2023-02-01T01:34:56;23.40;;;12.85;;
55007;SDS011;40902;45.116;21.296;2023-02-01T01:37:21;24.42;;;13.50;;
55007;SDS011;40902;45.116;21.296;2023-02-01T01:39:47;25.35;;;13.73;;
55007;SDS011;40902;45.116;21.296;2023-02-01T01:42:13;24.75;;;13.52;;
55007;SDS011;40902;45.116;21.296;2023-02-01T01:44:58;22.83;;;14.00;;
55007;SDS011;40902;45.116;21.296;2023-02-01T01:47:32;24.10;;;14.25;;
55007;SDS011;40902;45.116;21.296;2023-02-01T01:50:07;31.88;;;17.02;;
55007;SDS011;40902;45.116;21.296;2023-02-01T01:52:34;29.13;;;15.93;;
55007;SDS011;40902;45.116;21.296;2023-02-01T01:55:01;24.42;;;15.43;;
55007;SDS011;40902;45.116;21.296;2023-02-01T01:57:33;27.20;;;15.88;;
55007;SDS011;40902;45.116;21.296;2023-02-01T02:00:07;25.00;;;14.60;;
55007;SDS011;40902;45.116;21.296;2023-02-01T02:02:38;26.27;;;14.18;;
55007;SDS011;40902;45.116;21.296;2023-02-01T02:05:05;26.90;;;14.88;;
55007;SDS011;40902;45.116;21.296;2023-02-01T02:07:32;24.80;;;12.13;;
55007;SDS011;40902;45.116;21.296;2023-02-01T02:10:02;23.40;;;13.15;;
55007;SDS011;40902;45.116;21.296;2023-02-01T02:12:37;19.15;;;12.07;;
55007;SDS011;40902;45.116;21.296;2023-02-01T02:15:05;22.58;;;13.55;;
55007;SDS011;40902;45.116;21.296;2023-02-01T02:17:48;19.40;;;11.35;;
55007;SDS011;40902;45.116;21.296;2023-02-01T02:20:41;20.70;;;12.70;;
55007;SDS011;40902;45.116;21.296;2023-02-01T02:39:36;20.58;;;11.55;;
55007;SDS011;40902;45.116;21.296;2023-02-01T02:45:17;19.48;;;11.35;;
55007;SDS011;40902;45.116;21.296;2023-02-01T02:48:29;20.55;;;10.90;;
55007;SDS011;40902;45.116;21.296;2023-02-01T02:54:36;18.45;;;11.07;;
55007;SDS011;40902;45.116;21.296;2023-02-01T02:57:24;20.67;;;11.93;;
55007;SDS011;40902;45.116;21.296;2023-02-01T03:00:14;24.23;;;14.40;;
55007;SDS011;40902;45.116;21.296;2023-02-01T03:03:00;24.52;;;14.95;;
55007;SDS011;40902;45.116;21.296;2023-02-01T03:05:45;26.83;;;15.68;;
55007;SDS011;40902;45.116;21.296;2023-02-01T03:08:16;30.17;;;17.98;;
55007;SDS011;40902;45.116;21.296;2023-02-01T03:10:47;30.67;;;17.92;;
55007;SDS011;40902;45.116;21.296;2023-02-01T03:19:03;34.95;;;18.85;;
55007;SDS011;40902;45.116;21.296;2023-02-01T03:21:43;33.78;;;19.25;;
55007;SDS011;40902;45.116;21.296;2023-02-01T03:24:41;34.42;;;18.23;;
55007;SDS011;40902;45.116;21.296;2023-02-01T03:29:59;29.40;;;16.10;;
55007;SDS011;40902;45.116;21.296;2023-02-01T03:32:35;28.30;;;15.10;;
55007;SDS011;40902;45.116;21.296;2023-02-01T03:35:24;25.30;;;15.52;;
55007;SDS011;40902;45.116;21.296;2023-02-01T03:37:50;26.00;;;16.25;;
55007;SDS011;40902;45.116;21.296;2023-02-01T03:40:21;27.02;;;16.58;;
55007;SDS011;40902;45.116;21.296;2023-02-01T03:42:48;26.33;;;16.00;;
55007;SDS011;40902;45.116;21.296;2023-02-01T03:45:27;25.52;;;14.85;;
55007;SDS011;40902;45.116;21.296;2023-02-01T03:47:59;22.58;;;14.25;;
55007;SDS011;40902;45.116;21.296;2023-02-01T03:50:26;25.15;;;12.80;;
55007;SDS011;40902;45.116;21.296;2023-02-01T03:52:55;18.08;;;11.95;;
55007;SDS011;40902;45.116;21.296;2023-02-01T03:55:28;22.80;;;12.25;;
55007;SDS011;40902;45.116;21.296;2023-02-01T03:57:57;22.40;;;11.32;;
55007;SDS011;40902;45.116;21.296;2023-02-01T04:00:24;23.73;;;12.18;;
55007;SDS011;40902;45.116;21.296;2023-02-01T04:02:51;19.52;;;11.73;;
55007;SDS011;40902;45.116;21.296;2023-02-01T04:05:17;18.85;;;11.55;;
55007;SDS011;40902;45.116;21.296;2023-02-01T04:07:44;19.20;;;11.98;;
55007;SDS011;40902;45.116;21.296;2023-02-01T04:10:10;20.02;;;11.48;;
55007;SDS011;40902;45.116;21.296;2023-02-01T04:12:36;16.80;;;11.00;;
55007;SDS011;40902;45.116;21.296;2023-02-01T04:15:02;16.20;;;11.00;;
55007;SDS011;40902;45.116;21.296;2023-02-01T04:17:29;21.35;;;12.68;;
55007;SDS011;40902;45.116;21.296;2023-02-01T04:19:55;19.92;;;11.77;;
55007;SDS011;40902;45.116;21.296;2023-02-01T04:22:21;20.33;;;12.13;;
55007;SDS011;40902;45.116;21.296;2023-02-01T04:24:46;20.70;;;11.63;;
55007;SDS011;40902;45.116;21.296;2023-02-01T04:27:12;21.48;;;11.80;;
55007;SDS011;40902;45.116;21.296;2023-02-01T04:29:38;18.42;;;11.40;;
55007;SDS011;40902;45.116;21.296;2023-02-01T04:32:04;22.52;;;11.05;;
55007;SDS011;40902;45.116;21.296;2023-02-01T04:34:30;19.65;;;11.40;;
55007;SDS011;40902;45.116;21.296;2023-02-01T04:36:56;21.10;;;11.95;;
55007;SDS011;40902;45.116;21.296;2023-02-01T04:39:22;20.83;;;11.23;;
55007;SDS011;40902;45.116;21.296;2023-02-01T04:41:47;21.27;;;11.38;;
55007;SDS011;40902;45.116;21.296;2023-02-01T04:44:14;17.38;;;10.73;;
55007;SDS011;40902;45.116;21.296;2023-02-01T04:46:41;20.05;;;10.50;;
55007;SDS011;40902;45.116;21.296;2023-02-01T04:49:08;18.10;;;11.07;;
55007;SDS011;40902;45.116;21.296;2023-02-01T04:51:35;16.80;;;10.35;;
55007;SDS011;40902;45.116;21.296;2023-02-01T04:54:00;21.10;;;10.50;;
55007;SDS011;40902;45.116;21.296;2023-02-01T04:56:26;18.23;;;11.07;;
55007;SDS011;40902;45.116;21.296;2023-02-01T04:58:52;20.50;;;10.77;;
55007;SDS011;40902;45.116;21.296;2023-02-01T05:01:18;20.27;;;10.88;;
55007;SDS011;40902;45.116;21.296;2023-02-01T05:03:43;22.80;;;10.10;;
55007;SDS011;40902;45.116;21.296;2023-02-01T05:06:09;16.08;;;11.10;;
55007;SDS011;40902;45.116;21.296;2023-02-01T05:08:35;20.25;;;11.18;;
55007;SDS011;40902;45.116;21.296;2023-02-01T05:11:01;18.38;;;11.45;;
55007;SDS011;40902;45.116;21.296;2023-02-01T05:13:29;19.05;;;11.85;;
55007;SDS011;40902;45.116;21.296;2023-02-01T05:16:14;16.00;;;10.70;;
55007;SDS011;40902;45.116;21.296;2023-02-01T05:18:40;19.27;;;9.25;;
55007;SDS011;40902;45.116;21.296;2023-02-01T05:21:06;18.52;;;9.45;;
55007;SDS011;40902;45.116;21.296;2023-02-01T05:23:32;22.52;;;10.75;;
55007;SDS011;40902;45.116;21.296;2023-02-01T05:26:17;18.77;;;10.35;;
55007;SDS011;40902;45.116;21.296;2023-02-01T05:28:43;18.30;;;10.40;;
55007;SDS011;40902;45.116;21.296;2023-02-01T05:31:09;17.90;;;9.50;;
55007;SDS011;40902;45.116;21.296;2023-02-01T05:33:36;15.13;;;9.05;;
55007;SDS011;40902;45.116;21.296;2023-02-01T05:36:01;17.35;;;9.43;;
55007;SDS011;40902;45.116;21.296;2023-02-01T05:38:27;15.88;;;10.00;;
55007;SDS011;40902;45.116;21.296;2023-02-01T05:40:54;16.88;;;11.68;;
55007;SDS011;40902;45.116;21.296;2023-02-01T05:43:20;21.27;;;10.75;;
55007;SDS011;40902;45.116;21.296;2023-02-01T05:45:46;19.80;;;10.23;;
55007;SDS011;40902;45.116;21.296;2023-02-01T05:48:12;17.77;;;10.00;;
55007;SDS011;40902;45.116;21.296;2023-02-01T05:50:38;31.52;;;15.63;;
55007;SDS011;40902;45.116;21.296;2023-02-01T05:53:04;24.90;;;14.20;;
55007;SDS011;40902;45.116;21.296;2023-02-01T05:55:30;21.73;;;12.45;;
55007;SDS011;40902;45.116;21.296;2023-02-01T05:57:56;18.77;;;11.13;;
55007;SDS011;40902;45.116;21.296;2023-02-01T06:00:22;18.92;;;9.95;;
55007;SDS011;40902;45.116;21.296;2023-02-01T06:02:48;21.58;;;11.40;;
55007;SDS011;40902;45.116;21.296;2023-02-01T06:05:14;19.80;;;11.40;;
55007;SDS011;40902;45.116;21.296;2023-02-01T06:07:40;15.90;;;9.73;;
55007;SDS011;40902;45.116;21.296;2023-02-01T06:10:06;17.98;;;10.25;;
55007;SDS011;40902;45.116;21.296;2023-02-01T06:12:32;15.95;;;10.07;;
55007;SDS011;40902;45.116;21.296;2023-02-01T06:14:57;16.25;;;10.32;;
55007;SDS011;40902;45.116;21.296;2023-02-01T06:17:24;17.05;;;10.15;;
55007;SDS011;40902;45.116;21.296;2023-02-01T06:19:49;16.60;;;9.52;;
55007;SDS011;40902;45.116;21.296;2023-02-01T06:22:15;15.40;;;9.57;;
55007;SDS011;40902;45.116;21.296;2023-02-01T06:24:42;15.65;;;9.10;;
55007;SDS011;40902;45.116;21.296;2023-02-01T06:27:08;16.63;;;9.48;;
55007;SDS011;40902;45.116;21.296;2023-02-01T06:29:34;16.05;;;8.82;;
55007;SDS011;40902;45.116;21.296;2023-02-01T06:32:00;17.70;;;9.40;;
55007;SDS011;40902;45.116;21.296;2023-02-01T06:34:26;17.27;;;9.20;;
55007;SDS011;40902;45.116;21.296;2023-02-01T06:36:52;16.83;;;8.93;;
55007;SDS011;40902;45.116;21.296;2023-02-01T06:39:18;19.05;;;10.13;;
55007;SDS011;40902;45.116;21.296;2023-02-01T06:41:47;18.58;;;10.98;;
55007;SDS011;40902;45.116;21.296;2023-02-01T06:44:14;16.75;;;9.55;;
55007;SDS011;40902;45.116;21.296;2023-02-01T06:46:40;15.38;;;9.30;;
55007;SDS011;40902;45.116;21.296;2023-02-01T06:49:06;18.65;;;10.20;;
55007;SDS011;40902;45.116;21.296;2023-02-01T06:51:32;18.60;;;10.35;;
55007;SDS011;40902;45.116;21.296;2023-02-01T06:53:58;18.58;;;10.70;;
55007;SDS011;40902;45.116;21.296;2023-02-01T06:56:24;17.00;;;10.15;;
55007;SDS011;40902;45.116;21.296;2023-02-01T06:58:50;16.23;;;9.93;;
55007;SDS011;40902;45.116;21.296;2023-02-01T07:01:16;15.38;;;9.88;;
55007;SDS011;40902;45.116;21.296;2023-02-01T07:03:42;15.23;;;9.82;;
55007;SDS011;40902;45.116;21.296;2023-02-01T07:06:11;18.42;;;10.15;;
55007;SDS011;40902;45.116;21.296;2023-02-01T07:08:37;17.60;;;10.88;;
55007;SDS011;40902;45.116;21.296;2023-02-01T07:11:04;15.75;;;9.50;;
55007;SDS011;40902;45.116;21.296;2023-02-01T07:13:31;16.77;;;9.82;;
55007;SDS011;40902;45.116;21.296;2023-02-01T07:16:01;18.67;;;10.85;;
55007;SDS011;40902;45.116;21.296;2023-02-01T07:18:29;20.13;;;10.85;;
55007;SDS011;40902;45.116;21.296;2023-02-01T07:20:55;18.25;;;11.13;;
55007;SDS011;40902;45.116;21.296;2023-02-01T07:23:21;15.73;;;10.30;;
55007;SDS011;40902;45.116;21.296;2023-02-01T07:25:47;17.50;;;11.70;;
55007;SDS011;40902;45.116;21.296;2023-02-01T07:28:13;19.25;;;11.88;;
55007;SDS011;40902;45.116;21.296;2023-02-01T07:30:39;24.55;;;13.95;;
55007;SDS011;40902;45.116;21.296;2023-02-01T07:33:06;27.27;;;15.15;;
55007;SDS011;40902;45.116;21.296;2023-02-01T07:35:32;21.27;;;13.93;;
55007;SDS011;40902;45.116;21.296;2023-02-01T07:37:57;22.98;;;13.73;;
55007;SDS011;40902;45.116;21.296;2023-02-01T07:40:23;20.15;;;12.55;;
55007;SDS011;40902;45.116;21.296;2023-02-01T07:42:56;18.73;;;12.88;;
55007;SDS011;40902;45.116;21.296;2023-02-01T07:45:22;20.95;;;12.73;;
55007;SDS011;40902;45.116;21.296;2023-02-01T07:47:49;20.77;;;11.75;;
55007;SDS011;40902;45.116;21.296;2023-02-01T07:50:17;20.42;;;11.30;;
55007;SDS011;40902;45.116;21.296;2023-02-01T07:52:43;20.90;;;11.00;;
55007;SDS011;40902;45.116;21.296;2023-02-01T07:55:09;19.58;;;11.77;;
55007;SDS011;40902;45.116;21.296;2023-02-01T07:57:34;15.85;;;11.50;;
55007;SDS011;40902;45.116;21.296;2023-02-01T08:00:00;22.83;;;12.00;;
55007;SDS011;40902;45.116;21.296;2023-02-01T08:02:44;18.75;;;11.93;;
55007;SDS011;40902;45.116;21.296;2023-02-01T08:05:10;20.15;;;12.48;;
55007;SDS011;40902;45.116;21.296;2023-02-01T08:07:36;21.17;;;12.18;;
55007;SDS011;40902;45.116;21.296;2023-02-01T08:10:02;25.05;;;14.30;;
55007;SDS011;40902;45.116;21.296;2023-02-01T08:12:30;23.13;;;15.13;;
55007;SDS011;40902;45.116;21.296;2023-02-01T08:14:56;21.83;;;11.90;;
55007;SDS011;40902;45.116;21.296;2023-02-01T08:17:21;16.20;;;10.65;;
55007;SDS011;40902;45.116;21.296;2023-02-01T08:19:47;22.17;;;12.10;;
55007;SDS011;40902;45.116;21.296;2023-02-01T08:22:13;21.08;;;11.75;;
55007;SDS011;40902;45.116;21.296;2023-02-01T08:24:38;23.48;;;13.15;;
55007;SDS011;40902;45.116;21.296;2023-02-01T08:27:06;15.85;;;10.15;;
55007;SDS011;40902;45.116;21.296;2023-02-01T08:29:32;17.55;;;10.95;;
55007;SDS011;40902;45.116;21.296;2023-02-01T08:31:57;14.25;;;9.68;;
55007;SDS011;40902;45.116;21.296;2023-02-01T08:34:23;16.88;;;11.82;;
55007;SDS011;40902;45.116;21.296;2023-02-01T08:36:49;16.25;;;10.18;;
55007;SDS011;40902;45.116;21.296;2023-02-01T08:39:18;57.15;;;29.95;;
55007;SDS011;40902;45.116;21.296;2023-02-01T08:41:43;22.65;;;11.45;;
55007;SDS011;40902;45.116;21.296;2023-02-01T08:44:29;13.23;;;8.38;;
55007;SDS011;40902;45.116;21.296;2023-02-01T08:46:55;18.55;;;10.20;;
55007;SDS011;40902;45.116;21.296;2023-02-01T08:49:20;18.65;;;11.98;;
55007;SDS011;40902;45.116;21.296;2023-02-01T08:51:46;17.40;;;9.80;;
55007;SDS011;40902;45.116;21.296;2023-02-01T08:54:12;12.68;;;7.55;;
55007;SDS011;40902;45.116;21.296;2023-02-01T08:56:37;12.40;;;8.15;;
55007;SDS011;40902;45.116;21.296;2023-02-01T08:59:03;16.90;;;10.30;;
55007;SDS011;40902;45.116;21.296;2023-02-01T09:01:29;13.77;;;8.98;;
55007;SDS011;40902;45.116;21.296;2023-02-01T09:03:54;16.15;;;8.60;;
55007;SDS011;40902;45.116;21.296;2023-02-01T09:06:20;17.98;;;10.60;;
55007;SDS011;40902;45.116;21.296;2023-02-01T09:08:46;14.40;;;8.55;;
55007;SDS011;40902;45.116;21.296;2023-02-01T09:11:13;14.90;;;9.13;;
55007;SDS011;40902;45.116;21.296;2023-02-01T09:13:41;14.95;;;8.80;;
55007;SDS011;40902;45.116;21.296;2023-02-01T09:16:07;12.85;;;8.68;;
55007;SDS011;40902;45.116;21.296;2023-02-01T09:18:33;18.40;;;9.57;;
55007;SDS011;40902;45.116;21.296;2023-02-01T09:21:03;15.98;;;10.55;;
55007;SDS011;40902;45.116;21.296;2023-02-01T09:23:32;14.77;;;9.75;;
55007;SDS011;40902;45.116;21.296;2023-02-01T09:25:59;24.05;;;11.82;;
55007;SDS011;40902;45.116;21.296;2023-02-01T09:28:25;13.38;;;8.35;;
55007;SDS011;40902;45.116;21.296;2023-02-01T09:30:55;12.00;;;7.78;;
55007;SDS011;40902;45.116;21.296;2023-02-01T09:33:24;16.08;;;9.57;;
55007;SDS011;40902;45.116;21.296;2023-02-01T09:36:00;16.48;;;9.07;;
55007;SDS011;40902;45.116;21.296;2023-02-01T09:38:28;18.95;;;9.98;;
55007;SDS011;40902;45.116;21.296;2023-02-01T09:40:54;14.88;;;8.18;;
55007;SDS011;40902;45.116;21.296;2023-02-01T09:48:56;13.68;;;8.15;;
55007;SDS011;40902;45.116;21.296;2023-02-01T09:51:26;10.63;;;6.88;;
55007;SDS011;40902;45.116;21.296;2023-02-01T09:54:09;13.05;;;7.40;;
55007;SDS011;40902;45.116;21.296;2023-02-01T09:56:49;12.23;;;7.85;;
55007;SDS011;40902;45.116;21.296;2023-02-01T10:02:03;12.15;;;7.43;;
55007;SDS011;40902;45.116;21.296;2023-02-01T10:04:36;14.52;;;8.35;;
55007;SDS011;40902;45.116;21.296;2023-02-01T10:20:52;11.30;;;4.85;;
55007;SDS011;40902;45.116;21.296;2023-02-01T10:23:51;5.95;;;3.60;;
55007;SDS011;40902;45.116;21.296;2023-02-01T10:26:17;5.38;;;3.50;;
55007;SDS011;40902;45.116;21.296;2023-02-01T10:28:56;6.93;;;4.10;;
55007;SDS011;40902;45.116;21.296;2023-02-01T10:31:25;5.97;;;3.78;;
55007;SDS011;40902;45.116;21.296;2023-02-01T10:33:59;6.43;;;3.40;;
55007;SDS011;40902;45.116;21.296;2023-02-01T10:39:38;7.90;;;4.38;;
55007;SDS011;40902;45.116;21.296;2023-02-01T10:42:04;7.70;;;4.75;;
55007;SDS011;40902;45.116;21.296;2023-02-01T10:44:30;7.88;;;4.63;;
55007;SDS011;40902;45.116;21.296;2023-02-01T10:47:01;7.30;;;4.18;;
55007;SDS011;40902;45.116;21.296;2023-02-01T10:52:20;6.93;;;4.03;;
55007;SDS011;40902;45.116;21.296;2023-02-01T10:55:47;7.10;;;4.40;;
55007;SDS011;40902;45.116;21.296;2023-02-01T10:57:58;8.23;;;4.20;;
55007;SDS011;40902;45.116;21.296;2023-02-01T11:00:42;8.15;;;4.30;;
55007;SDS011;40902;45.116;21.296;2023-02-01T11:03:22;8.13;;;4.60;;
55007;SDS011;40902;45.116;21.296;2023-02-01T11:08:46;9.68;;;5.15;;
55007;SDS011;40902;45.116;21.296;2023-02-01T11:11:14;8.13;;;4.10;;
55007;SDS011;40902;45.116;21.296;2023-02-01T11:13:40;9.38;;;4.63;;
55007;SDS011;40902;45.116;21.296;2023-02-01T11:16:08;8.88;;;4.85;;
55007;SDS011;40902;45.116;21.296;2023-02-01T11:18:37;12.55;;;5.95;;
55007;SDS011;40902;45.116;21.296;2023-02-01T11:21:04;11.55;;;6.43;;
55007;SDS011;40902;45.116;21.296;2023-02-01T11:23:31;8.02;;;4.70;;
55007;SDS011;40902;45.116;21.296;2023-02-01T11:25:59;8.25;;;4.65;;
55007;SDS011;40902;45.116;21.296;2023-02-01T11:28:29;7.30;;;4.35;;
55007;SDS011;40902;45.116;21.296;2023-02-01T11:30:59;8.68;;;4.53;;
55007;SDS011;40902;45.116;21.296;2023-02-01T11:33:29;11.13;;;5.55;;
55007;SDS011;40902;45.116;21.296;2023-02-01T11:36:00;8.18;;;4.97;;
55007;SDS011;40902;45.116;21.296;2023-02-01T11:38:32;8.18;;;3.90;;
55007;SDS011;40902;45.116;21.296;2023-02-01T11:41:20;8.02;;;4.35;;
55007;SDS011;40902;45.116;21.296;2023-02-01T11:44:00;11.23;;;4.63;;
55007;SDS011;40902;45.116;21.296;2023-02-01T11:46:31;9.73;;;5.45;;
55007;SDS011;40902;45.116;21.296;2023-02-01T11:49:13;9.07;;;5.65;;
55007;SDS011;40902;45.116;21.296;2023-02-01T11:54:23;8.70;;;4.50;;
55007;SDS011;40902;45.116;21.296;2023-02-01T11:57:14;9.35;;;4.50;;
55007;SDS011;40902;45.116;21.296;2023-02-01T12:00:04;7.68;;;3.95;;
55007;SDS011;40902;45.116;21.296;2023-02-01T12:16:31;7.18;;;3.63;;
55007;SDS011;40902;45.116;21.296;2023-02-01T12:25:16;6.05;;;3.13;;
55007;SDS011;40902;45.116;21.296;2023-02-01T12:49:50;10.40;;;3.80;;
55007;SDS011;40902;45.116;21.296;2023-02-01T12:58:34;9.13;;;4.43;;
55007;SDS011;40902;45.116;21.296;2023-02-01T13:00:41;10.52;;;6.22;;
55007;SDS011;40902;45.116;21.296;2023-02-01T13:06:09;9.93;;;5.22;;
55007;SDS011;40902;45.116;21.296;2023-02-01T13:08:52;11.60;;;6.03;;
55007;SDS011;40902;45.116;21.296;2023-02-01T13:13:55;11.48;;;6.88;;
55007;SDS011;40902;45.116;21.296;2023-02-01T13:16:35;15.02;;;9.80;;
55007;SDS011;40902;45.116;21.296;2023-02-01T13:19:17;13.60;;;6.57;;
55007;SDS011;40902;45.116;21.296;2023-02-01T13:22:02;12.25;;;5.97;;
55007;SDS011;40902;45.116;21.296;2023-02-01T13:27:10;12.45;;;7.68;;
55007;SDS011;40902;45.116;21.296;2023-02-01T13:29:46;10.60;;;6.17;;
55007;SDS011;40902;45.116;21.296;2023-02-01T13:43:44;14.75;;;6.85;;
55007;SDS011;40902;45.116;21.296;2023-02-01T13:46:14;9.18;;;6.22;;
55007;SDS011;40902;45.116;21.296;2023-02-01T13:51:15;10.80;;;6.63;;
55007;SDS011;40902;45.116;21.296;2023-02-01T13:53:57;12.10;;;6.10;;
55007;SDS011;40902;45.116;21.296;2023-02-01T13:56:23;18.48;;;7.68;;
55007;SDS011;40902;45.116;21.296;2023-02-01T13:58:50;13.60;;;6.75;;
55007;SDS011;40902;45.116;21.296;2023-02-01T14:06:18;14.50;;;7.47;;
55007;SDS011;40902;45.116;21.296;2023-02-01T14:16:40;17.33;;;9.60;;
55007;SDS011;40902;45.116;21.296;2023-02-01T14:19:25;12.55;;;6.72;;
55007;SDS011;40902;45.116;21.296;2023-02-01T14:21:59;8.82;;;5.50;;
55007;SDS011;40902;45.116;21.296;2023-02-01T14:24:43;8.50;;;5.90;;
55007;SDS011;40902;45.116;21.296;2023-02-01T14:27:19;16.88;;;8.77;;
55007;SDS011;40902;45.116;21.296;2023-02-01T14:29:52;19.67;;;11.47;;
55007;SDS011;40902;45.116;21.296;2023-02-01T14:32:25;25.70;;;14.75;;
55007;SDS011;40902;45.116;21.296;2023-02-01T14:34:58;24.00;;;14.50;;
55007;SDS011;40902;45.116;21.296;2023-02-01T14:37:28;21.08;;;13.50;;
55007;SDS011;40902;45.116;21.296;2023-02-01T14:40:00;28.52;;;14.65;;
55007;SDS011;40902;45.116;21.296;2023-02-01T14:50:25;28.73;;;14.00;;
55007;SDS011;40902;45.116;21.296;2023-02-01T14:55:26;20.85;;;11.05;;
55007;SDS011;40902;45.116;21.296;2023-02-01T14:58:05;25.05;;;13.10;;
55007;SDS011;40902;45.116;21.296;2023-02-01T15:00:46;17.63;;;10.75;;
55007;SDS011;40902;45.116;21.296;2023-02-01T15:05:50;24.02;;;14.63;;
55007;SDS011;40902;45.116;21.296;2023-02-01T15:08:43;16.52;;;9.80;;
55007;SDS011;40902;45.116;21.296;2023-02-01T15:11:11;58.50;;;38.90;;
55007;SDS011;40902;45.116;21.296;2023-02-01T15:13:40;31.15;;;19.40;;
55007;SDS011;40902;45.116;21.296;2023-02-01T15:16:13;115.60;;;84.90;;
55007;SDS011;40902;45.116;21.296;2023-02-01T15:18:40;108.60;;;79.60;;
55007;SDS011;40902;45.116;21.296;2023-02-01T15:21:12;56.92;;;42.60;;
55007;SDS011;40902;45.116;21.296;2023-02-01T15:23:41;42.10;;;28.73;;
55007;SDS011;40902;45.116;21.296;2023-02-01T15:26:07;38.45;;;25.67;;
55007;SDS011;40902;45.116;21.296;2023-02-01T15:28:33;29.88;;;20.52;;
55007;SDS011;40902;45.116;21.296;2023-02-01T15:30:59;26.20;;;18.10;;
55007;SDS011;40902;45.116;21.296;2023-02-01T15:33:30;18.02;;;12.50;;
55007;SDS011;40902;45.116;21.296;2023-02-01T15:38:36;28.98;;;19.98;;
55007;SDS011;40902;45.116;21.296;2023-02-01T15:41:15;31.05;;;22.33;;
55007;SDS011;40902;45.116;21.296;2023-02-01T15:46:22;27.65;;;18.10;;
55007;SDS011;40902;45.116;21.296;2023-02-01T15:48:55;26.25;;;16.63;;
55007;SDS011;40902;45.116;21.296;2023-02-01T15:51:25;40.58;;;25.80;;
55007;SDS011;40902;45.116;21.296;2023-02-01T15:56:39;33.65;;;22.65;;
55007;SDS011;40902;45.116;21.296;2023-02-01T15:59:12;42.60;;;27.70;;
55007;SDS011;40902;45.116;21.296;2023-02-01T16:01:43;51.15;;;33.13;;
55007;SDS011;40902;45.116;21.296;2023-02-01T16:04:17;43.30;;;27.65;;
55007;SDS011;40902;45.116;21.296;2023-02-01T16:09:19;51.58;;;28.63;;
55007;SDS011;40902;45.116;21.296;2023-02-01T16:12:20;64.57;;;38.80;;
55007;SDS011;40902;45.116;21.296;2023-02-01T16:14:54;73.43;;;44.83;;
55007;SDS011;40902;45.116;21.296;2023-02-01T16:17:20;75.63;;;45.08;;
55007;SDS011;40902;45.116;21.296;2023-02-01T16:19:45;73.63;;;45.83;;
55007;SDS011;40902;45.116;21.296;2023-02-01T16:22:11;64.22;;;38.05;;
55007;SDS011;40902;45.116;21.296;2023-02-01T16:24:37;55.60;;;35.60;;
55007;SDS011;40902;45.116;21.296;2023-02-01T16:27:03;53.63;;;34.35;;
55007;SDS011;40902;45.116;21.296;2023-02-01T16:29:31;49.33;;;31.42;;
55007;SDS011;40902;45.116;21.296;2023-02-01T16:31:58;46.50;;;29.92;;
55007;SDS011;40902;45.116;21.296;2023-02-01T16:34:24;44.28;;;28.13;;
55007;SDS011;40902;45.116;21.296;2023-02-01T16:36:50;46.65;;;29.65;;
55007;SDS011;40902;45.116;21.296;2023-02-01T16:39:22;47.92;;;30.98;;
55007;SDS011;40902;45.116;21.296;2023-02-01T16:41:48;47.80;;;31.10;;
55007;SDS011;40902;45.116;21.296;2023-02-01T16:44:15;47.78;;;31.30;;
55007;SDS011;40902;45.116;21.296;2023-02-01T16:46:44;56.00;;;35.75;;
55007;SDS011;40902;45.116;21.296;2023-02-01T16:49:17;50.45;;;33.58;;
55007;SDS011;40902;45.116;21.296;2023-02-01T16:51:48;52.67;;;35.83;;
55007;SDS011;40902;45.116;21.296;2023-02-01T16:54:15;58.08;;;35.83;;
55007;SDS011;40902;45.116;21.296;2023-02-01T16:56:41;58.78;;;36.63;;
55007;SDS011;40902;45.116;21.296;2023-02-01T16:59:08;55.80;;;34.90;;
55007;SDS011;40902;45.116;21.296;2023-02-01T17:01:34;51.53;;;33.25;;
55007;SDS011;40902;45.116;21.296;2023-02-01T17:04:02;47.03;;;30.77;;
55007;SDS011;40902;45.116;21.296;2023-02-01T17:06:28;46.58;;;29.42;;
55007;SDS011;40902;45.116;21.296;2023-02-01T17:08:57;49.65;;;29.23;;
55007;SDS011;40902;45.116;21.296;2023-02-01T17:11:24;40.80;;;26.00;;
55007;SDS011;40902;45.116;21.296;2023-02-01T17:13:51;52.60;;;30.40;;
55007;SDS011;40902;45.116;21.296;2023-02-01T17:18:42;41.47;;;25.10;;
55007;SDS011;40902;45.116;21.296;2023-02-01T17:21:11;41.63;;;23.42;;
55007;SDS011;40902;45.116;21.296;2023-02-01T17:23:37;33.38;;;19.42;;